sensor_id;sensor_type;location;lat;lon;timestamp;pressure;altitude;pressure_sealevel;temperature;humidity
29935;BME280;19905;53.370;-6.314;2022-11-09T00:00:32;98872.13;;;9.16;100.00
29935;BME280;19905;53.370;-6.314;2022-11-09T00:03:01;98859.25;;;9.13;100.00
29935;BME280;19905;53.370;-6.314;2022-11-09T00:05:29;98863.69;;;9.13;100.00
29935;BME280;19905;53.370;-6.314;2022-11-09T00:07:58;98876.88;;;9.13;100.00
29935;BME280;19905;53.370;-6.314;2022-11-09T00:10:26;98877.53;;;9.15;100.00
29935;BME280;19905;53.370;-6.314;2022-11-09T00:12:57;98880.50;;;9.12;100.00
29935;BME280;19905;53.370;-6.314;2022-11-09T00:15:25;98875.81;;;9.06;100.00
29935;BME280;19905;53.370;-6.314;2022-11-09T00:17:54;98880.78;;;9.09;100.00
29935;BME280;19905;53.370;-6.314;2022-11-09T00:20:23;98881.59;;;9.09;100.00
29935;BME280;19905;53.370;-6.314;2022-11-09T00:22:52;98890.16;;;9.11;100.00
29935;BME280;19905;53.370;-6.314;2022-11-09T00:25:20;98884.78;;;9.13;100.00
29935;BME280;19905;53.370;-6.314;2022-11-09T00:27:49;98888.00;;;9.07;100.00
29935;BME280;19905;53.370;-6.314;2022-11-09T00:30:20;98906.03;;;9.20;100.00
29935;BME280;19905;53.370;-6.314;2022-11-09T00:32:49;98894.31;;;9.14;100.00
29935;BME280;19905;53.370;-6.314;2022-11-09T00:35:17;98891.03;;;9.12;100.00
29935;BME280;19905;53.370;-6.314;2022-11-09T00:37:46;98887.69;;;9.10;100.00
29935;BME280;19905;53.370;-6.314;2022-11-09T00:40:15;98891.69;;;9.14;100.00
29935;BME280;19905;53.370;-6.314;2022-11-09T00:42:48;98891.31;;;9.09;100.00
29935;BME280;19905;53.370;-6.314;2022-11-09T00:45:17;98894.03;;;9.17;100.00
29935;BME280;19905;53.370;-6.314;2022-11-09T00:47:48;98900.13;;;9.18;100.00
29935;BME280;19905;53.370;-6.314;2022-11-09T00:50:17;98891.06;;;9.20;100.00
29935;BME280;19905;53.370;-6.314;2022-11-09T00:52:46;98905.84;;;9.13;100.00
29935;BME280;19905;53.370;-6.314;2022-11-09T00:55:15;98900.88;;;9.10;100.00
29935;BME280;19905;53.370;-6.314;2022-11-09T00:57:48;98909.06;;;9.07;100.00
29935;BME280;19905;53.370;-6.314;2022-11-09T01:00:17;98909.13;;;9.15;100.00
29935;BME280;19905;53.370;-6.314;2022-11-09T01:02:50;98909.91;;;9.07;100.00
29935;BME280;19905;53.370;-6.314;2022-11-09T01:05:24;98900.34;;;9.06;100.00
29935;BME280;19905;53.370;-6.314;2022-11-09T01:07:56;98913.28;;;9.00;100.00
29935;BME280;19905;53.370;-6.314;2022-11-09T01:10:25;98922.94;;;8.91;100.00
29935;BME280;19905;53.370;-6.314;2022-11-09T01:12:54;98927.53;;;8.89;100.00
29935;BME280;19905;53.370;-6.314;2022-11-09T01:15:22;98926.22;;;8.93;100.00
29935;BME280;19905;53.370;-6.314;2022-11-09T01:17:53;98932.91;;;8.87;100.00
29935;BME280;19905;53.370;-6.314;2022-11-09T01:20:21;98926.28;;;8.83;100.00
29935;BME280;19905;53.370;-6.314;2022-11-09T01:22:50;98928.25;;;8.81;100.00
29935;BME280;19905;53.370;-6.314;2022-11-09T01:25:20;98936.78;;;8.75;100.00
29935;BME280;19905;53.370;-6.314;2022-11-09T01:27:49;98932.00;;;8.79;100.00
29935;BME280;19905;53.370;-6.314;2022-11-09T01:30:18;98945.13;;;8.71;100.00
29935;BME280;19905;53.370;-6.314;2022-11-09T01:32:49;98957.41;;;8.70;100.00
29935;BME280;19905;53.370;-6.314;2022-11-09T01:35:19;98950.22;;;8.72;100.00
29935;BME280;19905;53.370;-6.314;2022-11-09T01:37:48;98955.66;;;8.61;100.00
29935;BME280;19905;53.370;-6.314;2022-11-09T01:40:19;98960.13;;;8.60;100.00
29935;BME280;19905;53.370;-6.314;2022-11-09T01:42:55;98954.84;;;8.60;100.00
29935;BME280;19905;53.370;-6.314;2022-11-09T01:45:30;98966.91;;;8.63;100.00
29935;BME280;19905;53.370;-6.314;2022-11-09T01:48:03;98977.72;;;8.60;100.00
29935;BME280;19905;53.370;-6.314;2022-11-09T01:50:42;98979.50;;;8.59;100.00
29935;BME280;19905;53.370;-6.314;2022-11-09T01:53:16;98971.78;;;8.58;100.00
29935;BME280;19905;53.370;-6.314;2022-11-09T01:55:54;98985.00;;;8.48;100.00
29935;BME280;19905;53.370;-6.314;2022-11-09T01:58:27;98990.91;;;8.50;100.00
29935;BME280;19905;53.370;-6.314;2022-11-09T02:00:59;98994.97;;;8.45;100.00
29935;BME280;19905;53.370;-6.314;2022-11-09T02:03:31;99000.38;;;8.43;100.00
29935;BME280;19905;53.370;-6.314;2022-11-09T02:06:09;98997.88;;;8.42;100.00
29935;BME280;19905;53.370;-6.314;2022-11-09T02:08:40;99007.75;;;8.39;100.00
29935;BME280;19905;53.370;-6.314;2022-11-09T02:11:13;99013.94;;;8.48;100.00
29935;BME280;19905;53.370;-6.314;2022-11-09T02:13:48;99003.03;;;8.43;100.00
29935;BME280;19905;53.370;-6.314;2022-11-09T02:16:20;99004.50;;;8.46;100.00
29935;BME280;19905;53.370;-6.314;2022-11-09T02:18:51;98995.34;;;8.50;100.00
29935;BME280;19905;53.370;-6.314;2022-11-09T02:21:24;99020.31;;;8.46;100.00
29935;BME280;19905;53.370;-6.314;2022-11-09T02:23:53;99014.22;;;8.45;100.00
29935;BME280;19905;53.370;-6.314;2022-11-09T02:26:26;99012.84;;;8.41;100.00
29935;BME280;19905;53.370;-6.314;2022-11-09T02:29:01;99026.56;;;8.35;100.00
29935;BME280;19905;53.370;-6.314;2022-11-09T02:31:33;99029.47;;;8.42;100.00
29935;BME280;19905;53.370;-6.314;2022-11-09T02:34:05;99031.53;;;8.38;100.00
29935;BME280;19905;53.370;-6.314;2022-11-09T02:36:37;99035.16;;;8.37;100.00
29935;BME280;19905;53.370;-6.314;2022-11-09T02:39:06;99044.84;;;8.36;100.00
29935;BME280;19905;53.370;-6.314;2022-11-09T02:41:38;99042.22;;;8.36;100.00
29935;BME280;19905;53.370;-6.314;2022-11-09T02:44:12;99053.44;;;8.38;100.00
29935;BME280;19905;53.370;-6.314;2022-11-09T02:46:40;99056.75;;;8.40;100.00
29935;BME280;19905;53.370;-6.314;2022-11-09T02:49:09;99063.13;;;8.38;100.00
29935;BME280;19905;53.370;-6.314;2022-11-09T02:51:39;99060.06;;;8.33;100.00
29935;BME280;19905;53.370;-6.314;2022-11-09T02:54:08;99067.94;;;8.43;100.00
29935;BME280;19905;53.370;-6.314;2022-11-09T02:56:37;99074.06;;;8.43;100.00
29935;BME280;19905;53.370;-6.314;2022-11-09T02:59:06;99078.19;;;8.46;100.00
29935;BME280;19905;53.370;-6.314;2022-11-09T03:01:34;99087.88;;;8.35;100.00
29935;BME280;19905;53.370;-6.314;2022-11-09T03:04:05;99084.88;;;8.40;100.00
29935;BME280;19905;53.370;-6.314;2022-11-09T03:06:36;99093.56;;;8.31;100.00
29935;BME280;19905;53.370;-6.314;2022-11-09T03:09:13;99092.19;;;8.36;100.00
29935;BME280;19905;53.370;-6.314;2022-11-09T03:11:50;99096.59;;;8.36;100.00
29935;BME280;19905;53.370;-6.314;2022-11-09T03:14:19;99098.84;;;8.31;100.00
29935;BME280;19905;53.370;-6.314;2022-11-09T03:16:47;99109.38;;;8.40;100.00
29935;BME280;19905;53.370;-6.314;2022-11-09T03:19:16;99102.56;;;8.38;100.00
29935;BME280;19905;53.370;-6.314;2022-11-09T03:21:45;99110.88;;;8.33;100.00
29935;BME280;19905;53.370;-6.314;2022-11-09T03:24:15;99112.28;;;8.37;100.00
29935;BME280;19905;53.370;-6.314;2022-11-09T03:26:43;99106.47;;;8.34;100.00
29935;BME280;19905;53.370;-6.314;2022-11-09T03:29:12;99114.47;;;8.42;100.00
29935;BME280;19905;53.370;-6.314;2022-11-09T03:31:41;99114.47;;;8.42;100.00
29935;BME280;19905;53.370;-6.314;2022-11-09T03:34:09;99117.41;;;8.39;100.00
29935;BME280;19905;53.370;-6.314;2022-11-09T03:36:38;99108.09;;;8.35;100.00
29935;BME280;19905;53.370;-6.314;2022-11-09T03:39:06;99102.97;;;8.33;100.00
29935;BME280;19905;53.370;-6.314;2022-11-09T03:41:36;99119.47;;;8.35;100.00
29935;BME280;19905;53.370;-6.314;2022-11-09T03:44:05;99118.75;;;8.33;100.00
29935;BME280;19905;53.370;-6.314;2022-11-09T03:46:34;99131.22;;;8.31;100.00
29935;BME280;19905;53.370;-6.314;2022-11-09T03:49:02;99122.50;;;8.31;100.00
29935;BME280;19905;53.370;-6.314;2022-11-09T03:51:31;99125.41;;;8.28;100.00
29935;BME280;19905;53.370;-6.314;2022-11-09T03:54:00;99126.53;;;8.25;100.00
29935;BME280;19905;53.370;-6.314;2022-11-09T03:56:29;99129.59;;;8.21;100.00
29935;BME280;19905;53.370;-6.314;2022-11-09T03:59:00;99132.22;;;8.21;100.00
29935;BME280;19905;53.370;-6.314;2022-11-09T04:01:29;99139.41;;;8.28;100.00
29935;BME280;19905;53.370;-6.314;2022-11-09T04:03:57;99139.69;;;8.25;100.00
29935;BME280;19905;53.370;-6.314;2022-11-09T04:06:26;99131.94;;;8.24;100.00
29935;BME280;19905;53.370;-6.314;2022-11-09T04:08:55;99126.66;;;8.24;100.00
29935;BME280;19905;53.370;-6.314;2022-11-09T04:11:26;99132.22;;;8.21;100.00
29935;BME280;19905;53.370;-6.314;2022-11-09T04:13:55;99136.22;;;8.15;100.00
29935;BME280;19905;53.370;-6.314;2022-11-09T04:16:25;99144.00;;;8.17;100.00
29935;BME280;19905;53.370;-6.314;2022-11-09T04:18:54;99150.91;;;8.18;100.00
29935;BME280;19905;53.370;-6.314;2022-11-09T04:21:22;99153.94;;;8.23;100.00
29935;BME280;19905;53.370;-6.314;2022-11-09T04:23:51;99162.09;;;8.20;100.00
29935;BME280;19905;53.370;-6.314;2022-11-09T04:26:20;99165.19;;;8.25;100.00
29935;BME280;19905;53.370;-6.314;2022-11-09T04:28:53;99162.41;;;8.26;100.00
29935;BME280;19905;53.370;-6.314;2022-11-09T04:31:39;99180.66;;;8.18;100.00
29935;BME280;19905;53.370;-6.314;2022-11-09T04:34:08;99174.31;;;8.21;100.00
29935;BME280;19905;53.370;-6.314;2022-11-09T04:36:40;99175.97;;;8.22;100.00
29935;BME280;19905;53.370;-6.314;2022-11-09T04:39:23;99187.06;;;8.15;100.00
29935;BME280;19905;53.370;-6.314;2022-11-09T04:41:52;99189.81;;;8.14;100.00
29935;BME280;19905;53.370;-6.314;2022-11-09T04:44:20;99203.78;;;8.14;100.00
29935;BME280;19905;53.370;-6.314;2022-11-09T04:46:51;99195.78;;;8.16;100.00
29935;BME280;19905;53.370;-6.314;2022-11-09T04:49:19;99200.72;;;8.19;100.00
29935;BME280;19905;53.370;-6.314;2022-11-09T04:51:48;99190.22;;;8.19;100.00
29935;BME280;19905;53.370;-6.314;2022-11-09T04:54:16;99194.13;;;8.25;100.00
29935;BME280;19905;53.370;-6.314;2022-11-09T04:56:47;99188.28;;;8.31;100.00
29935;BME280;19905;53.370;-6.314;2022-11-09T04:59:15;99193.84;;;8.37;100.00
29935;BME280;19905;53.370;-6.314;2022-11-09T05:01:44;99220.53;;;8.43;100.00
29935;BME280;19905;53.370;-6.314;2022-11-09T05:04:15;99210.03;;;8.43;100.00
29935;BME280;19905;53.370;-6.314;2022-11-09T05:06:43;99194.25;;;8.43;100.00
29935;BME280;19905;53.370;-6.314;2022-11-09T05:09:12;99197.44;;;8.36;100.00
29935;BME280;19905;53.370;-6.314;2022-11-09T05:11:41;99197.84;;;8.42;100.00
29935;BME280;19905;53.370;-6.314;2022-11-09T05:14:10;99196.47;;;8.37;100.00
29935;BME280;19905;53.370;-6.314;2022-11-09T05:16:39;99189.41;;;8.38;100.00
29935;BME280;19905;53.370;-6.314;2022-11-09T05:19:08;99186.91;;;8.46;100.00
29935;BME280;19905;53.370;-6.314;2022-11-09T05:21:38;99184.00;;;8.39;100.00
29935;BME280;19905;53.370;-6.314;2022-11-09T05:24:11;99179.31;;;8.43;100.00
29935;BME280;19905;53.370;-6.314;2022-11-09T05:26:40;99196.59;;;8.36;100.00
29935;BME280;19905;53.370;-6.314;2022-11-09T05:29:10;99190.09;;;8.40;100.00
29935;BME280;19905;53.370;-6.314;2022-11-09T05:31:39;99195.63;;;8.37;100.00
29935;BME280;19905;53.370;-6.314;2022-11-09T05:34:16;99206.97;;;8.28;100.00
29935;BME280;19905;53.370;-6.314;2022-11-09T05:36:46;99208.09;;;8.25;100.00
29935;BME280;19905;53.370;-6.314;2022-11-09T05:39:15;99214.28;;;8.24;100.00
29935;BME280;19905;53.370;-6.314;2022-11-09T05:41:44;99206.41;;;8.24;100.00
29935;BME280;19905;53.370;-6.314;2022-11-09T05:44:12;99209.75;;;8.26;100.00
29935;BME280;19905;53.370;-6.314;2022-11-09T05:46:42;99207.94;;;8.17;100.00
29935;BME280;19905;53.370;-6.314;2022-11-09T05:49:10;99214.19;;;8.16;100.00
29935;BME280;19905;53.370;-6.314;2022-11-09T05:51:39;99218.72;;;8.24;100.00
29935;BME280;19905;53.370;-6.314;2022-11-09T05:54:09;99244.63;;;8.28;100.00
29935;BME280;19905;53.370;-6.314;2022-11-09T05:56:37;99231.88;;;8.24;100.00
29935;BME280;19905;53.370;-6.314;2022-11-09T05:59:07;99253.22;;;8.21;100.00
29935;BME280;19905;53.370;-6.314;2022-11-09T06:01:36;99257.25;;;8.25;100.00
29935;BME280;19905;53.370;-6.314;2022-11-09T06:04:05;99259.44;;;8.20;100.00
29935;BME280;19905;53.370;-6.314;2022-11-09T06:06:34;99263.75;;;8.21;100.00
29935;BME280;19905;53.370;-6.314;2022-11-09T06:09:02;99277.31;;;8.16;100.00
29935;BME280;19905;53.370;-6.314;2022-11-09T06:11:32;99277.00;;;8.19;100.00
29935;BME280;19905;53.370;-6.314;2022-11-09T06:14:01;99284.06;;;8.19;100.00
29935;BME280;19905;53.370;-6.314;2022-11-09T06:16:30;99259.72;;;8.17;100.00
29935;BME280;19905;53.370;-6.314;2022-11-09T06:19:00;99285.31;;;8.14;100.00
29935;BME280;19905;53.370;-6.314;2022-11-09T06:21:28;99298.59;;;8.13;100.00
29935;BME280;19905;53.370;-6.314;2022-11-09T06:23:57;99292.38;;;8.14;100.00
29935;BME280;19905;53.370;-6.314;2022-11-09T06:26:26;99299.19;;;8.17;100.00
29935;BME280;19905;53.370;-6.314;2022-11-09T06:28:56;99304.72;;;8.23;100.00
29935;BME280;19905;53.370;-6.314;2022-11-09T06:31:26;99311.91;;;8.21;100.00
29935;BME280;19905;53.370;-6.314;2022-11-09T06:33:54;99314.25;;;8.24;100.00
29935;BME280;19905;53.370;-6.314;2022-11-09T06:36:23;99314.72;;;8.29;100.00
29935;BME280;19905;53.370;-6.314;2022-11-09T06:38:52;99300.44;;;8.32;100.00
29935;BME280;19905;53.370;-6.314;2022-11-09T06:41:20;99328.28;;;8.34;100.00
29935;BME280;19905;53.370;-6.314;2022-11-09T06:43:49;99324.81;;;8.34;100.00
29935;BME280;19905;53.370;-6.314;2022-11-09T06:46:19;99316.63;;;8.27;100.00
29935;BME280;19905;53.370;-6.314;2022-11-09T06:48:48;99312.91;;;8.30;100.00
29935;BME280;19905;53.370;-6.314;2022-11-09T06:51:20;99313.56;;;8.22;100.00
29935;BME280;19905;53.370;-6.314;2022-11-09T06:53:49;99322.16;;;8.24;100.00
29935;BME280;19905;53.370;-6.314;2022-11-09T06:56:17;99325.22;;;8.29;100.00
29935;BME280;19905;53.370;-6.314;2022-11-09T06:58:46;99346.28;;;8.29;100.00
29935;BME280;19905;53.370;-6.314;2022-11-09T07:01:18;99348.44;;;8.24;100.00
29935;BME280;19905;53.370;-6.314;2022-11-09T07:03:50;99347.53;;;8.35;100.00
29935;BME280;19905;53.370;-6.314;2022-11-09T07:06:18;99367.16;;;8.31;100.00
29935;BME280;19905;53.370;-6.314;2022-11-09T07:08:47;99358.44;;;8.30;100.00
29935;BME280;19905;53.370;-6.314;2022-11-09T07:11:15;99367.59;;;8.26;100.00
29935;BME280;19905;53.370;-6.314;2022-11-09T07:13:47;99369.78;;;8.21;100.00
29935;BME280;19905;53.370;-6.314;2022-11-09T07:16:24;99379.19;;;8.24;100.00
29935;BME280;19905;53.370;-6.314;2022-11-09T07:18:53;99378.50;;;8.22;100.00
29935;BME280;19905;53.370;-6.314;2022-11-09T07:21:22;99386.53;;;8.20;100.00
29935;BME280;19905;53.370;-6.314;2022-11-09T07:23:51;99406.63;;;8.21;100.00
29935;BME280;19905;53.370;-6.314;2022-11-09T07:26:19;99408.69;;;8.27;100.00
29935;BME280;19905;53.370;-6.314;2022-11-09T07:28:47;99399.28;;;8.25;100.00
29935;BME280;19905;53.370;-6.314;2022-11-09T07:31:17;99413.97;;;8.27;100.00
29935;BME280;19905;53.370;-6.314;2022-11-09T07:33:48;99406.13;;;8.37;100.00
29935;BME280;19905;53.370;-6.314;2022-11-09T07:36:20;99406.00;;;8.38;100.00
29935;BME280;19905;53.370;-6.314;2022-11-09T07:38:49;99414.44;;;8.42;100.00
29935;BME280;19905;53.370;-6.314;2022-11-09T07:41:18;99424.97;;;8.42;100.00
29935;BME280;19905;53.370;-6.314;2022-11-09T07:43:46;99427.88;;;8.39;100.00
29935;BME280;19905;53.370;-6.314;2022-11-09T07:46:15;99431.50;;;8.48;100.00
29935;BME280;19905;53.370;-6.314;2022-11-09T07:48:47;99443.25;;;8.44;100.00
29935;BME280;19905;53.370;-6.314;2022-11-09T07:51:17;99439.50;;;8.46;100.00
29935;BME280;19905;53.370;-6.314;2022-11-09T07:53:47;99450.88;;;8.47;100.00
29935;BME280;19905;53.370;-6.314;2022-11-09T07:56:16;99448.53;;;8.44;100.00
29935;BME280;19905;53.370;-6.314;2022-11-09T07:58:44;99464.75;;;8.49;100.00
29935;BME280;19905;53.370;-6.314;2022-11-09T08:01:14;99458.34;;;8.42;100.00
29935;BME280;19905;53.370;-6.314;2022-11-09T08:03:42;99465.53;;;8.39;100.00
29935;BME280;19905;53.370;-6.314;2022-11-09T08:06:12;99456.81;;;8.39;100.00
29935;BME280;19905;53.370;-6.314;2022-11-09T08:08:44;99455.03;;;8.39;100.00
29935;BME280;19905;53.370;-6.314;2022-11-09T08:11:15;99473.16;;;8.43;100.00
29935;BME280;19905;53.370;-6.314;2022-11-09T08:13:44;99480.63;;;8.37;100.00
29935;BME280;19905;53.370;-6.314;2022-11-09T08:16:12;99483.38;;;8.36;100.00
29935;BME280;19905;53.370;-6.314;2022-11-09T08:18:41;99493.06;;;8.35;100.00
29935;BME280;19905;53.370;-6.314;2022-11-09T08:21:12;99489.34;;;8.38;100.00
29935;BME280;19905;53.370;-6.314;2022-11-09T08:23:40;99506.34;;;8.34;100.00
29935;BME280;19905;53.370;-6.314;2022-11-09T08:26:09;99512.19;;;8.37;100.00
29935;BME280;19905;53.370;-6.314;2022-11-09T08:28:38;99528.69;;;8.39;100.00
29935;BME280;19905;53.370;-6.314;2022-11-09T08:31:08;99539.81;;;8.43;100.00
29935;BME280;19905;53.370;-6.314;2022-11-09T08:33:39;99585.38;;;8.44;100.00
29935;BME280;19905;53.370;-6.314;2022-11-09T08:36:10;99615.53;;;8.39;100.00
29935;BME280;19905;53.370;-6.314;2022-11-09T08:38:41;99627.16;;;8.05;100.00
29935;BME280;19905;53.370;-6.314;2022-11-09T08:41:10;99631.25;;;7.77;100.00
29935;BME280;19905;53.370;-6.314;2022-11-09T08:43:40;99643.59;;;7.65;100.00
29935;BME280;19905;53.370;-6.314;2022-11-09T08:46:09;99645.22;;;7.45;100.00
29935;BME280;19905;53.370;-6.314;2022-11-09T08:48:37;99652.03;;;7.36;100.00
29935;BME280;19905;53.370;-6.314;2022-11-09T08:51:06;99653.38;;;7.31;100.00
29935;BME280;19905;53.370;-6.314;2022-11-09T08:53:35;99653.38;;;7.31;100.00
29935;BME280;19905;53.370;-6.314;2022-11-09T08:56:07;99655.16;;;7.30;100.00
29935;BME280;19905;53.370;-6.314;2022-11-09T08:58:38;99665.91;;;7.27;100.00
29935;BME280;19905;53.370;-6.314;2022-11-09T09:01:07;99669.72;;;7.34;100.00
29935;BME280;19905;53.370;-6.314;2022-11-09T09:03:42;99678.75;;;7.42;100.00
29935;BME280;19905;53.370;-6.314;2022-11-09T09:06:11;99678.91;;;7.40;100.00
29935;BME280;19905;53.370;-6.314;2022-11-09T09:08:40;99688.81;;;7.36;100.00
29935;BME280;19905;53.370;-6.314;2022-11-09T09:11:10;99683.44;;;7.38;100.00
29935;BME280;19905;53.370;-6.314;2022-11-09T09:13:38;99690.38;;;7.39;100.00
29935;BME280;19905;53.370;-6.314;2022-11-09T09:16:11;99701.84;;;7.38;100.00
29935;BME280;19905;53.370;-6.314;2022-11-09T09:18:40;99700.50;;;7.32;100.00
29935;BME280;19905;53.370;-6.314;2022-11-09T09:21:09;99711.28;;;7.29;100.00
29935;BME280;19905;53.370;-6.314;2022-11-09T09:23:39;99698.97;;;7.19;100.00
29935;BME280;19905;53.370;-6.314;2022-11-09T09:26:08;99697.91;;;7.10;100.00
29935;BME280;19905;53.370;-6.314;2022-11-09T09:28:37;99705.19;;;7.06;100.00
29935;BME280;19905;53.370;-6.314;2022-11-09T09:31:06;99715.22;;;7.01;100.00
29935;BME280;19905;53.370;-6.314;2022-11-09T09:33:41;99723.34;;;6.98;100.00
29935;BME280;19905;53.370;-6.314;2022-11-09T09:36:15;99727.41;;;7.02;100.00
29935;BME280;19905;53.370;-6.314;2022-11-09T09:38:45;99730.84;;;7.03;100.00
29935;BME280;19905;53.370;-6.314;2022-11-09T09:41:20;99743.63;;;7.07;100.00
29935;BME280;19905;53.370;-6.314;2022-11-09T09:43:53;99762.84;;;7.08;100.00
29935;BME280;19905;53.370;-6.314;2022-11-09T09:46:27;99750.44;;;7.21;100.00
29935;BME280;19905;53.370;-6.314;2022-11-09T09:49:02;99768.25;;;7.29;100.00
29935;BME280;19905;53.370;-6.314;2022-11-09T09:51:36;99755.44;;;7.35;100.00
29935;BME280;19905;53.370;-6.314;2022-11-09T09:54:11;99753.06;;;7.44;100.00
29935;BME280;19905;53.370;-6.314;2022-11-09T09:56:43;99747.31;;;7.50;100.00
29935;BME280;19905;53.370;-6.314;2022-11-09T09:59:21;99750.41;;;7.66;100.00
29935;BME280;19905;53.370;-6.314;2022-11-09T10:01:51;99757.56;;;7.75;100.00
29935;BME280;19905;53.370;-6.314;2022-11-09T10:04:30;99754.91;;;7.86;100.00
29935;BME280;19905;53.370;-6.314;2022-11-09T10:07:06;99765.50;;;7.96;100.00
29935;BME280;19905;53.370;-6.314;2022-11-09T10:09:55;99774.66;;;8.13;100.00
29935;BME280;19905;53.370;-6.314;2022-11-09T10:12:36;99789.34;;;8.27;100.00
29935;BME280;19905;53.370;-6.314;2022-11-09T10:15:16;99792.81;;;8.38;100.00
29935;BME280;19905;53.370;-6.314;2022-11-09T10:17:57;99800.03;;;8.46;100.00
29935;BME280;19905;53.370;-6.314;2022-11-09T10:20:40;99806.13;;;8.58;100.00
29935;BME280;19905;53.370;-6.314;2022-11-09T10:23:37;99812.97;;;8.70;100.00
29935;BME280;19905;53.370;-6.314;2022-11-09T10:26:15;99816.41;;;8.82;100.00
29935;BME280;19905;53.370;-6.314;2022-11-09T10:28:49;99827.72;;;8.94;100.00
29935;BME280;19905;53.370;-6.314;2022-11-09T10:31:41;99824.69;;;8.98;100.00
29935;BME280;19905;53.370;-6.314;2022-11-09T10:36:48;99830.09;;;9.18;100.00
29935;BME280;19905;53.370;-6.314;2022-11-09T10:39:20;99833.31;;;9.21;100.00
29935;BME280;19905;53.370;-6.314;2022-11-09T10:41:54;99832.69;;;9.38;100.00
29935;BME280;19905;53.370;-6.314;2022-11-09T10:44:23;99839.38;;;9.42;100.00
29935;BME280;19905;53.370;-6.314;2022-11-09T10:47:06;99834.97;;;9.53;100.00
29935;BME280;19905;53.370;-6.314;2022-11-09T10:49:38;99838.97;;;9.47;100.00
29935;BME280;19905;53.370;-6.314;2022-11-09T10:52:31;99836.19;;;9.79;100.00
29935;BME280;19905;53.370;-6.314;2022-11-09T10:55:22;99845.94;;;9.88;100.00
29935;BME280;19905;53.370;-6.314;2022-11-09T10:57:56;99837.63;;;9.93;100.00
29935;BME280;19905;53.370;-6.314;2022-11-09T11:00:27;99840.28;;;10.03;100.00
29935;BME280;19905;53.370;-6.314;2022-11-09T11:03:09;99831.00;;;10.08;100.00
29935;BME280;19905;53.370;-6.314;2022-11-09T11:05:38;99822.59;;;10.24;100.00
29935;BME280;19905;53.370;-6.314;2022-11-09T11:08:35;99826.38;;;10.41;100.00
29935;BME280;19905;53.370;-6.314;2022-11-09T11:11:16;99829.97;;;10.40;100.00
29935;BME280;19905;53.370;-6.314;2022-11-09T11:14:21;99822.03;;;10.40;100.00
29935;BME280;19905;53.370;-6.314;2022-11-09T11:16:53;99810.38;;;10.62;100.00
29935;BME280;19905;53.370;-6.314;2022-11-09T11:19:31;99818.84;;;10.75;100.00
29935;BME280;19905;53.370;-6.314;2022-11-09T11:22:17;99809.28;;;10.74;100.00
29935;BME280;19905;53.370;-6.314;2022-11-09T11:24:56;99823.28;;;10.84;100.00
29935;BME280;19905;53.370;-6.314;2022-11-09T11:27:31;99819.97;;;10.92;100.00
29935;BME280;19905;53.370;-6.314;2022-11-09T11:30:08;99824.81;;;10.97;100.00
29935;BME280;19905;53.370;-6.314;2022-11-09T11:32:38;99827.16;;;11.19;100.00
29935;BME280;19905;53.370;-6.314;2022-11-09T11:35:17;99830.19;;;11.24;100.00
29935;BME280;19905;53.370;-6.314;2022-11-09T11:37:57;99830.88;;;11.26;100.00
29935;BME280;19905;53.370;-6.314;2022-11-09T11:40:35;99814.41;;;11.42;100.00
29935;BME280;19905;53.370;-6.314;2022-11-09T11:43:19;99818.66;;;11.62;100.00
29935;BME280;19905;53.370;-6.314;2022-11-09T11:45:57;99821.28;;;11.62;100.00
29935;BME280;19905;53.370;-6.314;2022-11-09T11:51:34;99824.69;;;11.55;100.00
29935;BME280;19905;53.370;-6.314;2022-11-09T11:54:15;99805.28;;;11.64;100.00
29935;BME280;19905;53.370;-6.314;2022-11-09T11:56:47;99808.31;;;11.69;100.00
29935;BME280;19905;53.370;-6.314;2022-11-09T11:59:45;99829.13;;;11.82;100.00
29935;BME280;19905;53.370;-6.314;2022-11-09T12:02:48;99807.75;;;12.03;100.00
29935;BME280;19905;53.370;-6.314;2022-11-09T12:08:26;99807.94;;;12.37;100.00
29935;BME280;19905;53.370;-6.314;2022-11-09T12:11:03;99806.19;;;12.45;100.00
29935;BME280;19905;53.370;-6.314;2022-11-09T12:13:49;99810.75;;;12.53;100.00
29935;BME280;19905;53.370;-6.314;2022-11-09T12:16:26;99812.78;;;12.59;100.00
29935;BME280;19905;53.370;-6.314;2022-11-09T12:19:14;99814.75;;;12.75;100.00
29935;BME280;19905;53.370;-6.314;2022-11-09T12:21:58;99811.47;;;12.28;100.00
29935;BME280;19905;53.370;-6.314;2022-11-09T12:24:36;99812.59;;;12.07;100.00
29935;BME280;19905;53.370;-6.314;2022-11-09T12:27:35;99831.59;;;12.20;100.00
29935;BME280;19905;53.370;-6.314;2022-11-09T12:30:11;99822.72;;;12.57;100.00
29935;BME280;19905;53.370;-6.314;2022-11-09T12:32:47;99832.75;;;12.89;100.00
29935;BME280;19905;53.370;-6.314;2022-11-09T12:35:23;99832.78;;;13.15;100.00
29935;BME280;19905;53.370;-6.314;2022-11-09T12:37:59;99836.63;;;13.21;100.00
29935;BME280;19905;53.370;-6.314;2022-11-09T12:40:36;99835.88;;;12.85;100.00
29935;BME280;19905;53.370;-6.314;2022-11-09T12:43:12;99839.63;;;13.00;100.00
29935;BME280;19905;53.370;-6.314;2022-11-09T12:45:44;99834.66;;;12.97;100.00
29935;BME280;19905;53.370;-6.314;2022-11-09T12:48:21;99844.47;;;12.87;100.00
29935;BME280;19905;53.370;-6.314;2022-11-09T12:50:52;99842.25;;;12.56;100.00
29935;BME280;19905;53.370;-6.314;2022-11-09T12:53:24;99843.97;;;12.48;100.00
29935;BME280;19905;53.370;-6.314;2022-11-09T12:56:00;99848.44;;;12.65;100.00
29935;BME280;19905;53.370;-6.314;2022-11-09T12:58:33;99847.16;;;12.33;100.00
29935;BME280;19905;53.370;-6.314;2022-11-09T13:01:04;99854.03;;;12.62;100.00
29935;BME280;19905;53.370;-6.314;2022-11-09T13:03:36;99860.25;;;12.88;100.00
29935;BME280;19905;53.370;-6.314;2022-11-09T13:06:14;99848.81;;;12.88;100.00
29935;BME280;19905;53.370;-6.314;2022-11-09T13:08:56;99851.00;;;12.57;100.00
29935;BME280;19905;53.370;-6.314;2022-11-09T13:11:34;99846.56;;;12.75;100.00
29935;BME280;19905;53.370;-6.314;2022-11-09T13:14:26;99846.63;;;12.83;100.00
29935;BME280;19905;53.370;-6.314;2022-11-09T13:16:59;99843.94;;;13.01;100.00
29935;BME280;19905;53.370;-6.314;2022-11-09T13:19:49;99847.53;;;13.18;100.00
29935;BME280;19905;53.370;-6.314;2022-11-09T13:25:47;99832.47;;;12.57;100.00